sensor_id;sensor_type;location;lat;lon;timestamp;pressure;altitude;pressure_sealevel;temperature;humidity
26775;BME280;14362;51.902;7.626;2024-01-30T00:03:22;102264.13;;;3.79;86.54
26775;BME280;14362;51.902;7.626;2024-01-30T00:07:24;102265.00;;;3.78;87.34
26775;BME280;14362;51.902;7.626;2024-01-30T00:11:27;102253.69;;;3.77;86.84
26775;BME280;14362;51.902;7.626;2024-01-30T00:15:29;102254.47;;;3.75;86.65
26775;BME280;14362;51.902;7.626;2024-01-30T00:19:30;102250.94;;;3.73;86.68
26775;BME280;14362;51.902;7.626;2024-01-30T00:23:32;102258.81;;;3.74;87.71
26775;BME280;14362;51.902;7.626;2024-01-30T00:27:35;102254.50;;;3.76;86.81
26775;BME280;14362;51.902;7.626;2024-01-30T00:31:36;102255.78;;;3.89;87.87
26775;BME280;14362;51.902;7.626;2024-01-30T00:35:37;102256.13;;;4.00;87.82
26775;BME280;14362;51.902;7.626;2024-01-30T00:39:39;102249.34;;;4.07;87.92
26775;BME280;14362;51.902;7.626;2024-01-30T00:43:42;102243.53;;;4.16;87.40
26775;BME280;14362;51.902;7.626;2024-01-30T00:47:43;102248.97;;;4.23;88.28
26775;BME280;14362;51.902;7.626;2024-01-30T00:51:45;102251.84;;;4.33;88.54
26775;BME280;14362;51.902;7.626;2024-01-30T00:55:46;102256.44;;;4.41;88.94
26775;BME280;14362;51.902;7.626;2024-01-30T00:59:49;102252.28;;;4.48;88.40
26775;BME280;14362;51.902;7.626;2024-01-30T01:03:51;102232.44;;;4.53;89.13
26775;BME280;14362;51.902;7.626;2024-01-30T01:07:52;102238.66;;;4.58;89.21
26775;BME280;14362;51.902;7.626;2024-01-30T01:11:54;102235.25;;;4.61;88.72
26775;BME280;14362;51.902;7.626;2024-01-30T01:15:56;102234.50;;;4.65;89.20
26775;BME280;14362;51.902;7.626;2024-01-30T01:19:58;102238.88;;;4.66;88.79
26775;BME280;14362;51.902;7.626;2024-01-30T01:23:59;102240.69;;;4.69;89.07
26775;BME280;14362;51.902;7.626;2024-01-30T01:28:01;102238.06;;;4.69;88.78
26775;BME280;14362;51.902;7.626;2024-01-30T01:32:04;102231.09;;;4.68;88.80
26775;BME280;14362;51.902;7.626;2024-01-30T01:36:06;102231.09;;;4.68;89.31
26775;BME280;14362;51.902;7.626;2024-01-30T01:40:08;102240.78;;;4.73;89.11
26775;BME280;14362;51.902;7.626;2024-01-30T01:44:09;102239.19;;;4.78;89.43
26775;BME280;14362;51.902;7.626;2024-01-30T01:48:12;102231.38;;;4.80;89.39
26775;BME280;14362;51.902;7.626;2024-01-30T01:52:14;102227.16;;;4.84;89.31
26775;BME280;14362;51.902;7.626;2024-01-30T01:56:16;102229.09;;;4.91;89.44
26775;BME280;14362;51.902;7.626;2024-01-30T02:00:18;102222.25;;;4.96;89.09
26775;BME280;14362;51.902;7.626;2024-01-30T02:04:22;102217.13;;;5.01;88.76
26775;BME280;14362;51.902;7.626;2024-01-30T02:08:24;102225.91;;;5.03;88.76
26775;BME280;14362;51.902;7.626;2024-01-30T02:12:25;102213.00;;;5.09;88.29
26775;BME280;14362;51.902;7.626;2024-01-30T02:16:26;102206.03;;;5.09;88.76
26775;BME280;14362;51.902;7.626;2024-01-30T02:20:30;102216.53;;;5.11;88.45
26775;BME280;14362;51.902;7.626;2024-01-30T02:24:33;102198.31;;;5.13;88.36
26775;BME280;14362;51.902;7.626;2024-01-30T02:28:35;102206.19;;;5.14;88.31
26775;BME280;14362;51.902;7.626;2024-01-30T02:32:36;102191.41;;;5.16;88.39
26775;BME280;14362;51.902;7.626;2024-01-30T02:36:38;102184.47;;;5.17;88.03
26775;BME280;14362;51.902;7.626;2024-01-30T02:40:41;102183.56;;;5.16;88.04
26775;BME280;14362;51.902;7.626;2024-01-30T02:44:42;102184.47;;;5.17;87.99
26775;BME280;14362;51.902;7.626;2024-01-30T02:48:43;102185.34;;;5.17;88.01
26775;BME280;14362;51.902;7.626;2024-01-30T02:52:45;102178.41;;;5.18;88.06
26775;BME280;14362;51.902;7.626;2024-01-30T02:56:48;102191.50;;;5.19;87.64
26775;BME280;14362;51.902;7.626;2024-01-30T03:00:49;102176.63;;;5.15;87.70
26775;BME280;14362;51.902;7.626;2024-01-30T03:04:51;102171.31;;;5.12;87.54
26775;BME280;14362;51.902;7.626;2024-01-30T03:08:52;102171.28;;;5.10;87.65
26775;BME280;14362;51.902;7.626;2024-01-30T03:12:55;102159.97;;;5.10;87.52
26775;BME280;14362;51.902;7.626;2024-01-30T03:16:56;102155.63;;;5.12;87.90
26775;BME280;14362;51.902;7.626;2024-01-30T03:20:58;102152.13;;;5.10;87.42
26775;BME280;14362;51.902;7.626;2024-01-30T03:24:59;102141.69;;;5.10;87.14
26775;BME280;14362;51.902;7.626;2024-01-30T03:29:02;102146.09;;;5.13;87.41
26775;BME280;14362;51.902;7.626;2024-01-30T03:33:04;102147.81;;;5.12;87.13
26775;BME280;14362;51.902;7.626;2024-01-30T03:37:05;102140.78;;;5.09;87.51
26775;BME280;14362;51.902;7.626;2024-01-30T03:41:07;102137.31;;;5.09;87.10
26775;BME280;14362;51.902;7.626;2024-01-30T03:45:10;102132.00;;;5.06;87.21
26775;BME280;14362;51.902;7.626;2024-01-30T03:49:12;102118.09;;;5.07;87.14
26775;BME280;14362;51.902;7.626;2024-01-30T03:53:13;102122.47;;;5.08;87.32
26775;BME280;14362;51.902;7.626;2024-01-30T03:57:15;102122.34;;;5.03;87.08
26775;BME280;14362;51.902;7.626;2024-01-30T04:01:17;102123.13;;;4.99;87.43
26775;BME280;14362;51.902;7.626;2024-01-30T04:05:19;102125.72;;;4.98;87.27
26775;BME280;14362;51.902;7.626;2024-01-30T04:09:20;102127.41;;;4.95;87.38
26775;BME280;14362;51.902;7.626;2024-01-30T04:13:22;102113.41;;;4.92;86.64
26775;BME280;14362;51.902;7.626;2024-01-30T04:17:25;102117.72;;;4.91;87.53
26775;BME280;14362;51.902;7.626;2024-01-30T04:21:26;102120.28;;;4.88;87.21
26775;BME280;14362;51.902;7.626;2024-01-30T04:25:27;102122.00;;;4.88;87.51
26775;BME280;14362;51.902;7.626;2024-01-30T04:29:29;102110.63;;;4.84;87.33
26775;BME280;14362;51.902;7.626;2024-01-30T04:33:32;102112.28;;;4.82;87.26
26775;BME280;14362;51.902;7.626;2024-01-30T04:37:33;102113.03;;;4.76;87.71
26775;BME280;14362;51.902;7.626;2024-01-30T04:41:34;102112.13;;;4.76;87.60
26775;BME280;14362;51.902;7.626;2024-01-30T04:45:36;102105.88;;;4.69;87.73
26775;BME280;14362;51.902;7.626;2024-01-30T04:49:39;102109.28;;;4.65;87.70
26775;BME280;14362;51.902;7.626;2024-01-30T04:53:41;102102.25;;;4.62;87.23
26775;BME280;14362;51.902;7.626;2024-01-30T04:57:42;102112.72;;;4.64;87.60
26775;BME280;14362;51.902;7.626;2024-01-30T05:01:43;102103.09;;;4.61;87.48
26775;BME280;14362;51.902;7.626;2024-01-30T05:05:46;102108.44;;;4.66;87.84
26775;BME280;14362;51.902;7.626;2024-01-30T05:09:48;102102.41;;;4.69;87.25
26775;BME280;14362;51.902;7.626;2024-01-30T05:13:49;102113.72;;;4.69;87.48
26775;BME280;14362;51.902;7.626;2024-01-30T05:17:50;102107.66;;;4.70;87.88
26775;BME280;14362;51.902;7.626;2024-01-30T05:21:53;102109.44;;;4.71;88.14
26775;BME280;14362;51.902;7.626;2024-01-30T05:25:55;102106.06;;;4.75;87.93
26775;BME280;14362;51.902;7.626;2024-01-30T05:29:56;102092.25;;;4.81;87.57
26775;BME280;14362;51.902;7.626;2024-01-30T05:33:57;102102.84;;;4.87;88.26
26775;BME280;14362;51.902;7.626;2024-01-30T05:38:00;102097.66;;;4.89;87.75
26775;BME280;14362;51.902;7.626;2024-01-30T05:42:02;102098.59;;;4.91;87.83
26775;BME280;14362;51.902;7.626;2024-01-30T05:46:03;102093.53;;;4.97;87.53
26775;BME280;14362;51.902;7.626;2024-01-30T05:50:08;102092.81;;;5.04;87.96
26775;BME280;14362;51.902;7.626;2024-01-30T05:54:11;102095.44;;;5.06;87.89
26775;BME280;14362;51.902;7.626;2024-01-30T05:58:12;102092.81;;;5.04;87.59
26775;BME280;14362;51.902;7.626;2024-01-30T06:02:14;102098.88;;;5.03;87.58
26775;BME280;14362;51.902;7.626;2024-01-30T06:06:15;102104.09;;;5.03;87.51
26775;BME280;14362;51.902;7.626;2024-01-30T06:10:18;102098.88;;;5.03;87.73
26775;BME280;14362;51.902;7.626;2024-01-30T06:14:20;102090.28;;;5.07;87.51
26775;BME280;14362;51.902;7.626;2024-01-30T06:18:21;102089.41;;;5.08;87.65
26775;BME280;14362;51.902;7.626;2024-01-30T06:22:22;102089.56;;;5.15;87.54
26775;BME280;14362;51.902;7.626;2024-01-30T06:26:25;102087.84;;;5.15;87.30
26775;BME280;14362;51.902;7.626;2024-01-30T06:30:27;102090.50;;;5.17;87.54
26775;BME280;14362;51.902;7.626;2024-01-30T06:34:29;102091.31;;;5.14;87.50
26775;BME280;14362;51.902;7.626;2024-01-30T06:38:30;102105.16;;;5.11;87.42
26775;BME280;14362;51.902;7.626;2024-01-30T06:42:33;102100.66;;;5.06;87.54
26775;BME280;14362;51.902;7.626;2024-01-30T06:46:35;102101.47;;;5.03;86.72
26775;BME280;14362;51.902;7.626;2024-01-30T06:50:37;102104.88;;;4.99;87.30
26775;BME280;14362;51.902;7.626;2024-01-30T06:54:38;102094.41;;;4.98;87.25
26775;BME280;14362;51.902;7.626;2024-01-30T06:58:41;102091.66;;;4.93;87.04
26775;BME280;14362;51.902;7.626;2024-01-30T07:02:43;102094.28;;;4.93;87.56
26775;BME280;14362;51.902;7.626;2024-01-30T07:06:44;102099.50;;;4.93;87.15
26775;BME280;14362;51.902;7.626;2024-01-30T07:10:45;102090.91;;;4.97;87.37
26775;BME280;14362;51.902;7.626;2024-01-30T07:14:49;102097.88;;;4.98;86.78
26775;BME280;14362;51.902;7.626;2024-01-30T07:18:50;102095.34;;;5.01;87.25
26775;BME280;14362;51.902;7.626;2024-01-30T07:22:52;102092.84;;;5.06;87.31
26775;BME280;14362;51.902;7.626;2024-01-30T07:26:53;102085.13;;;5.10;87.18
26775;BME280;14362;51.902;7.626;2024-01-30T07:30:56;102095.72;;;5.17;87.50
26775;BME280;14362;51.902;7.626;2024-01-30T07:34:57;102102.75;;;5.21;87.35
26775;BME280;14362;51.902;7.626;2024-01-30T07:38:59;102091.56;;;5.26;87.18
26775;BME280;14362;51.902;7.626;2024-01-30T07:43:00;102096.91;;;5.31;87.15
26775;BME280;14362;51.902;7.626;2024-01-30T07:47:05;102109.19;;;5.37;87.20
26775;BME280;14362;51.902;7.626;2024-01-30T07:51:07;102103.25;;;5.42;87.11
26775;BME280;14362;51.902;7.626;2024-01-30T07:55:08;102104.31;;;5.52;87.01
26775;BME280;14362;51.902;7.626;2024-01-30T07:59:10;102120.13;;;5.58;87.13
26775;BME280;14362;51.902;7.626;2024-01-30T08:03:13;102115.09;;;5.68;86.97
26775;BME280;14362;51.902;7.626;2024-01-30T08:07:16;102121.31;;;5.74;86.89
26775;BME280;14362;51.902;7.626;2024-01-30T08:11:19;102111.91;;;5.81;86.56
26775;BME280;14362;51.902;7.626;2024-01-30T08:15:25;102114.66;;;5.89;86.61
26775;BME280;14362;51.902;7.626;2024-01-30T08:19:31;102117.38;;;5.95;86.39
26775;BME280;14362;51.902;7.626;2024-01-30T08:23:32;102125.38;;;6.01;86.71
26775;BME280;14362;51.902;7.626;2024-01-30T08:27:34;102120.31;;;6.09;86.05
26775;BME280;14362;51.902;7.626;2024-01-30T08:31:38;102116.09;;;6.17;86.19
26775;BME280;14362;51.902;7.626;2024-01-30T08:35:41;102123.25;;;6.27;86.10
26775;BME280;14362;51.902;7.626;2024-01-30T08:39:42;102119.97;;;6.38;85.71
26775;BME280;14362;51.902;7.626;2024-01-30T08:43:44;102120.06;;;6.44;85.64
26775;BME280;14362;51.902;7.626;2024-01-30T08:47:45;102112.38;;;6.53;85.45
26775;BME280;14362;51.902;7.626;2024-01-30T08:51:48;102115.16;;;6.63;85.35
26775;BME280;14362;51.902;7.626;2024-01-30T08:55:50;102115.34;;;6.72;85.62
26775;BME280;14362;51.902;7.626;2024-01-30T08:59:52;102135.56;;;6.82;85.15
26775;BME280;14362;51.902;7.626;2024-01-30T09:03:53;102137.50;;;6.94;84.51
26775;BME280;14362;51.902;7.626;2024-01-30T09:07:56;102123.72;;;7.04;84.35
26775;BME280;14362;51.902;7.626;2024-01-30T09:11:57;102125.66;;;7.19;84.58
26775;BME280;14362;51.902;7.626;2024-01-30T09:16:02;102117.13;;;7.33;83.86
26775;BME280;14362;51.902;7.626;2024-01-30T09:20:05;102122.50;;;7.42;83.93
26775;BME280;14362;51.902;7.626;2024-01-30T09:24:08;102124.38;;;7.52;83.45
26775;BME280;14362;51.902;7.626;2024-01-30T09:28:09;102128.81;;;7.58;83.45
26775;BME280;14362;51.902;7.626;2024-01-30T09:32:11;102130.69;;;7.65;83.16
26775;BME280;14362;51.902;7.626;2024-01-30T09:36:12;102125.56;;;7.74;82.59
26775;BME280;14362;51.902;7.626;2024-01-30T09:40:16;102125.66;;;7.85;82.99
26775;BME280;14362;51.902;7.626;2024-01-30T09:44:20;102144.19;;;7.96;83.14
26775;BME280;14362;51.902;7.626;2024-01-30T09:48:21;102140.72;;;8.00;82.53
26775;BME280;14362;51.902;7.626;2024-01-30T09:52:23;102132.03;;;8.07;81.97
26775;BME280;14362;51.902;7.626;2024-01-30T09:56:26;102140.91;;;8.19;81.59
26775;BME280;14362;51.902;7.626;2024-01-30T10:00:27;102132.28;;;8.28;81.98
26775;BME280;14362;51.902;7.626;2024-01-30T10:04:29;102145.41;;;8.31;80.95
26775;BME280;14362;51.902;7.626;2024-01-30T10:08:30;102138.47;;;8.36;81.25
26775;BME280;14362;51.902;7.626;2024-01-30T10:12:33;102137.69;;;8.41;80.96
26775;BME280;14362;51.902;7.626;2024-01-30T10:16:35;102138.66;;;8.48;80.44
26775;BME280;14362;51.902;7.626;2024-01-30T10:20:36;102125.53;;;8.51;81.35
26775;BME280;14362;51.902;7.626;2024-01-30T10:24:38;102114.22;;;8.57;80.81
26775;BME280;14362;51.902;7.626;2024-01-30T10:28:40;102109.91;;;8.62;80.62
26775;BME280;14362;51.902;7.626;2024-01-30T10:32:42;102117.78;;;8.67;80.08
26775;BME280;14362;51.902;7.626;2024-01-30T10:36:46;102118.75;;;8.75;80.21
26775;BME280;14362;51.902;7.626;2024-01-30T10:40:52;102127.56;;;8.83;79.77
26775;BME280;14362;51.902;7.626;2024-01-30T10:45:05;102130.25;;;8.93;79.90
26775;BME280;14362;51.902;7.626;2024-01-30T10:49:08;102123.34;;;9.04;79.52
26775;BME280;14362;51.902;7.626;2024-01-30T10:53:11;102136.59;;;9.21;78.74
26775;BME280;14362;51.902;7.626;2024-01-30T10:57:15;102133.16;;;9.34;78.16
26775;BME280;14362;51.902;7.626;2024-01-30T11:01:18;102138.56;;;9.51;78.01
26775;BME280;14362;51.902;7.626;2024-01-30T11:05:27;102135.16;;;9.69;77.30
26775;BME280;14362;51.902;7.626;2024-01-30T11:09:29;102126.41;;;9.80;77.16
26775;BME280;14362;51.902;7.626;2024-01-30T11:13:31;102122.91;;;9.87;77.37
26775;BME280;14362;51.902;7.626;2024-01-30T11:17:44;102124.72;;;9.97;77.06
26775;BME280;14362;51.902;7.626;2024-01-30T11:21:46;102120.41;;;10.15;76.36
26775;BME280;14362;51.902;7.626;2024-01-30T11:25:47;102121.31;;;10.29;76.10
26775;BME280;14362;51.902;7.626;2024-01-30T11:29:52;102118.69;;;10.40;75.77
26775;BME280;14362;51.902;7.626;2024-01-30T11:33:56;102125.75;;;10.53;75.50
26775;BME280;14362;51.902;7.626;2024-01-30T11:37:58;102124.88;;;10.53;75.43
26775;BME280;14362;51.902;7.626;2024-01-30T11:42:00;102123.13;;;10.66;75.69
26775;BME280;14362;51.902;7.626;2024-01-30T11:46:05;102124.00;;;10.86;75.19
26775;BME280;14362;51.902;7.626;2024-01-30T11:50:09;102131.88;;;10.97;75.28
26775;BME280;14362;51.902;7.626;2024-01-30T11:54:11;102131.03;;;11.11;74.70
26775;BME280;14362;51.902;7.626;2024-01-30T11:58:12;102135.38;;;11.16;74.87
26775;BME280;14362;51.902;7.626;2024-01-30T12:02:15;102136.28;;;11.17;74.60
26775;BME280;14362;51.902;7.626;2024-01-30T12:06:18;102139.81;;;11.14;74.76
26775;BME280;14362;51.902;7.626;2024-01-30T12:10:20;102145.94;;;11.13;75.13
26775;BME280;14362;51.902;7.626;2024-01-30T12:14:22;102160.00;;;11.11;74.70
26775;BME280;14362;51.902;7.626;2024-01-30T12:18:25;102154.72;;;11.08;74.33
26775;BME280;14362;51.902;7.626;2024-01-30T12:22:28;102150.34;;;11.03;74.73
26775;BME280;14362;51.902;7.626;2024-01-30T12:26:29;102145.94;;;11.07;74.20
26775;BME280;14362;51.902;7.626;2024-01-30T12:30:31;102150.34;;;11.07;74.75
26775;BME280;14362;51.902;7.626;2024-01-30T12:34:32;102145.06;;;11.08;74.51
26775;BME280;14362;51.902;7.626;2024-01-30T12:38:35;102157.38;;;11.11;74.57
26775;BME280;14362;51.902;7.626;2024-01-30T12:42:37;102158.25;;;11.10;74.52
26775;BME280;14362;51.902;7.626;2024-01-30T12:46:38;102139.81;;;11.10;74.41
26775;BME280;14362;51.902;7.626;2024-01-30T12:50:40;102138.94;;;11.04;74.97
26775;BME280;14362;51.902;7.626;2024-01-30T12:54:43;102158.25;;;11.05;74.98
26775;BME280;14362;51.902;7.626;2024-01-30T12:58:44;102157.38;;;11.04;75.05
26775;BME280;14362;51.902;7.626;2024-01-30T13:02:47;102137.19;;;11.07;75.51
26775;BME280;14362;51.902;7.626;2024-01-30T13:06:48;102144.19;;;11.06;75.31
26775;BME280;14362;51.902;7.626;2024-01-30T13:10:51;102145.94;;;11.10;74.72
26775;BME280;14362;51.902;7.626;2024-01-30T13:14:53;102147.69;;;11.13;74.87
26775;BME280;14362;51.902;7.626;2024-01-30T13:18:54;102147.72;;;11.22;74.32
26775;BME280;14362;51.902;7.626;2024-01-30T13:22:56;102144.16;;;11.21;74.70
26775;BME280;14362;51.902;7.626;2024-01-30T13:26:58;102139.78;;;11.20;74.95
26775;BME280;14362;51.902;7.626;2024-01-30T13:31:00;102152.06;;;11.37;74.19
26775;BME280;14362;51.902;7.626;2024-01-30T13:35:02;102148.53;;;11.44;74.57
26775;BME280;14362;51.902;7.626;2024-01-30T13:39:03;102154.69;;;11.31;74.60
26775;BME280;14362;51.902;7.626;2024-01-30T13:43:10;102158.25;;;11.24;74.80
26775;BME280;14362;51.902;7.626;2024-01-30T13:47:12;102155.59;;;11.19;74.52
26775;BME280;14362;51.902;7.626;2024-01-30T13:51:13;102150.34;;;11.16;73.97
26775;BME280;14362;51.902;7.626;2024-01-30T13:55:17;102155.59;;;11.13;72.99
26775;BME280;14362;51.902;7.626;2024-01-30T13:59:20;102156.47;;;11.02;73.33
26775;BME280;14362;51.902;7.626;2024-01-30T14:03:24;102167.94;;;10.95;73.44
26775;BME280;14362;51.902;7.626;2024-01-30T14:07:26;102159.13;;;10.93;73.85
26775;BME280;14362;51.902;7.626;2024-01-30T14:11:27;102175.81;;;10.91;74.11
26775;BME280;14362;51.902;7.626;2024-01-30T14:15:30;102167.03;;;10.87;74.05
26775;BME280;14362;51.902;7.626;2024-01-30T14:19:31;102162.66;;;10.91;73.92
26775;BME280;14362;51.902;7.626;2024-01-30T14:23:33;102161.75;;;10.95;73.87
26775;BME280;14362;51.902;7.626;2024-01-30T14:27:35;102174.94;;;11.01;72.53
26775;BME280;14362;51.902;7.626;2024-01-30T14:31:37;102170.53;;;10.91;73.19
26775;BME280;14362;51.902;7.626;2024-01-30T14:35:39;102167.91;;;10.89;73.25
26775;BME280;14362;51.902;7.626;2024-01-30T14:39:40;102160.03;;;10.80;73.67
26775;BME280;14362;51.902;7.626;2024-01-30T14:43:42;102172.31;;;10.75;74.20
26775;BME280;14362;51.902;7.626;2024-01-30T14:47:45;102163.50;;;10.71;74.63
26775;BME280;14362;51.902;7.626;2024-01-30T14:51:46;102171.41;;;10.69;74.39
26775;BME280;14362;51.902;7.626;2024-01-30T14:55:50;102175.78;;;10.67;74.53
26775;BME280;14362;51.902;7.626;2024-01-30T14:59:52;102174.91;;;10.70;74.75
26775;BME280;14362;51.902;7.626;2024-01-30T15:03:54;102188.97;;;10.74;74.62
26775;BME280;14362;51.902;7.626;2024-01-30T15:07:56;102192.50;;;10.79;74.66
26775;BME280;14362;51.902;7.626;2024-01-30T15:11:57;102188.09;;;10.76;74.41
26775;BME280;14362;51.902;7.626;2024-01-30T15:15:59;102199.50;;;10.66;74.48
26775;BME280;14362;51.902;7.626;2024-01-30T15:20:05;102205.63;;;10.52;75.23
26775;BME280;14362;51.902;7.626;2024-01-30T15:24:07;102203.88;;;10.48;75.19
26775;BME280;14362;51.902;7.626;2024-01-30T15:28:08;102213.53;;;10.43;75.56
26775;BME280;14362;51.902;7.626;2024-01-30T15:32:10;102218.69;;;10.34;75.50
26775;BME280;14362;51.902;7.626;2024-01-30T15:36:13;102209.91;;;10.29;75.50
26775;BME280;14362;51.902;7.626;2024-01-30T15:40:15;102230.97;;;10.24;75.46
26775;BME280;14362;51.902;7.626;2024-01-30T15:44:16;102234.44;;;10.17;75.21
26775;BME280;14362;51.902;7.626;2024-01-30T15:48:18;102244.97;;;10.15;75.18
26775;BME280;14362;51.902;7.626;2024-01-30T15:52:21;102251.13;;;10.20;73.71
26775;BME280;14362;51.902;7.626;2024-01-30T15:56:22;102257.22;;;10.07;73.15
26775;BME280;14362;51.902;7.626;2024-01-30T16:00:24;102265.06;;;10.02;70.04
26775;BME280;14362;51.902;7.626;2024-01-30T16:04:26;102269.47;;;10.03;70.39
26775;BME280;14362;51.902;7.626;2024-01-30T16:08:29;102284.31;;;9.95;70.47
26775;BME280;14362;51.902;7.626;2024-01-30T16:12:30;102288.66;;;9.87;70.81
26775;BME280;14362;51.902;7.626;2024-01-30T16:16:32;102290.38;;;9.82;69.43
26775;BME280;14362;51.902;7.626;2024-01-30T16:20:34;102288.50;;;9.65;68.87
26775;BME280;14362;51.902;7.626;2024-01-30T16:24:37;102298.03;;;9.48;70.08
26775;BME280;14362;51.902;7.626;2024-01-30T16:28:39;102303.16;;;9.32;70.06
26775;BME280;14362;51.902;7.626;2024-01-30T16:32:40;102314.44;;;9.19;70.53
26775;BME280;14362;51.902;7.626;2024-01-30T16:36:42;102314.34;;;9.11;70.22
26775;BME280;14362;51.902;7.626;2024-01-30T16:40:46;102314.31;;;9.10;69.73
26775;BME280;14362;51.902;7.626;2024-01-30T16:44:47;102319.53;;;9.06;69.81
26775;BME280;14362;51.902;7.626;2024-01-30T16:48:49;102330.97;;;9.10;70.00
26775;BME280;14362;51.902;7.626;2024-01-30T16:52:50;102345.00;;;9.12;69.04
26775;BME280;14362;51.902;7.626;2024-01-30T16:56:53;102346.75;;;9.12;69.15
26775;BME280;14362;51.902;7.626;2024-01-30T17:00:54;102350.22;;;9.09;69.56
26775;BME280;14362;51.902;7.626;2024-01-30T17:04:56;102364.22;;;9.10;69.11
26775;BME280;14362;51.902;7.626;2024-01-30T17:08:58;102364.19;;;9.05;69.28
26775;BME280;14362;51.902;7.626;2024-01-30T17:13:01;102373.84;;;9.06;68.47
26775;BME280;14362;51.902;7.626;2024-01-30T17:17:03;102373.84;;;9.06;68.12
26775;BME280;14362;51.902;7.626;2024-01-30T17:21:04;102390.47;;;9.03;68.47
26775;BME280;14362;51.902;7.626;2024-01-30T17:25:06;102393.97;;;9.05;67.77
26775;BME280;14362;51.902;7.626;2024-01-30T17:29:09;102394.81;;;9.01;67.93
26775;BME280;14362;51.902;7.626;2024-01-30T17:33:11;102391.31;;;9.02;67.88
26775;BME280;14362;51.902;7.626;2024-01-30T17:37:12;102408.78;;;8.99;67.64
26775;BME280;14362;51.902;7.626;2024-01-30T17:41:14;102406.19;;;9.02;68.44
26775;BME280;14362;51.902;7.626;2024-01-30T17:45:17;102410.47;;;8.92;69.02
26775;BME280;14362;51.902;7.626;2024-01-30T17:49:18;102423.53;;;8.87;69.38
26775;BME280;14362;51.902;7.626;2024-01-30T17:53:19;102430.56;;;8.90;69.58
26775;BME280;14362;51.902;7.626;2024-01-30T17:57:21;102440.13;;;8.86;70.20
26775;BME280;14362;51.902;7.626;2024-01-30T18:01:24;102447.06;;;8.81;71.94
26775;BME280;14362;51.902;7.626;2024-01-30T18:05:25;102451.34;;;8.73;72.66
26775;BME280;14362;51.902;7.626;2024-01-30T18:09:27;102451.97;;;8.53;74.59
26775;BME280;14362;51.902;7.626;2024-01-30T18:13:28;102452.66;;;8.43;75.88
26775;BME280;14362;51.902;7.626;2024-01-30T18:17:31;102463.84;;;8.31;77.27
26775;BME280;14362;51.902;7.626;2024-01-30T18:21:34;102458.38;;;8.19;78.33
26775;BME280;14362;51.902;7.626;2024-01-30T18:25:35;102465.28;;;8.14;78.09
26775;BME280;14362;51.902;7.626;2024-01-30T18:29:37;102469.56;;;8.07;78.48
26775;BME280;14362;51.902;7.626;2024-01-30T18:33:41;102467.78;;;8.04;78.76
26775;BME280;14362;51.902;7.626;2024-01-30T18:37:42;102458.94;;;7.99;79.31
26775;BME280;14362;51.902;7.626;2024-01-30T18:41:44;102471.06;;;7.91;78.97
26775;BME280;14362;51.902;7.626;2024-01-30T18:45:50;102483.25;;;7.90;78.75
26775;BME280;14362;51.902;7.626;2024-01-30T18:49:53;102491.94;;;7.86;79.60
26775;BME280;14362;51.902;7.626;2024-01-30T18:53:55;102491.06;;;7.86;78.84
26775;BME280;14362;51.902;7.626;2024-01-30T18:57:56;102499.63;;;7.75;79.56
26775;BME280;14362;51.902;7.626;2024-01-30T19:01:58;102510.94;;;7.74;79.53
26775;BME280;14362;51.902;7.626;2024-01-30T19:06:01;102519.59;;;7.69;78.97
26775;BME280;14362;51.902;7.626;2024-01-30T19:10:03;102512.63;;;7.71;79.58
26775;BME280;14362;51.902;7.626;2024-01-30T19:14:05;102505.63;;;7.70;79.23
26775;BME280;14362;51.902;7.626;2024-01-30T19:18:06;102501.97;;;7.62;79.06
26775;BME280;14362;51.902;7.626;2024-01-30T19:22:12;102514.91;;;7.52;79.06
26775;BME280;14362;51.902;7.626;2024-01-30T19:26:13;102516.47;;;7.44;79.33
26775;BME280;14362;51.902;7.626;2024-01-30T19:30:15;102527.00;;;7.46;79.67
26775;BME280;14362;51.902;7.626;2024-01-30T19:34:17;102541.00;;;7.48;79.22
26775;BME280;14362;51.902;7.626;2024-01-30T19:38:19;102541.09;;;7.51;79.66
26775;BME280;14362;51.902;7.626;2024-01-30T19:42:21;102550.69;;;7.52;79.72
26775;BME280;14362;51.902;7.626;2024-01-30T19:46:22;102560.41;;;7.56;79.54
26775;BME280;14362;51.902;7.626;2024-01-30T19:50:24;102549.88;;;7.54;79.13
26775;BME280;14362;51.902;7.626;2024-01-30T19:54:26;102552.56;;;7.57;79.57
26775;BME280;14362;51.902;7.626;2024-01-30T19:58:29;102562.94;;;7.53;80.06
26775;BME280;14362;51.902;7.626;2024-01-30T20:02:31;102564.69;;;7.52;78.81
26775;BME280;14362;51.902;7.626;2024-01-30T20:06:32;102569.97;;;7.54;79.47
26775;BME280;14362;51.902;7.626;2024-01-30T20:10:35;102569.09;;;7.53;78.81
26775;BME280;14362;51.902;7.626;2024-01-30T20:14:36;102573.47;;;7.54;79.12
26775;BME280;14362;51.902;7.626;2024-01-30T20:18:38;102584.81;;;7.53;78.99
26775;BME280;14362;51.902;7.626;2024-01-30T20:22:39;102576.81;;;7.47;80.01
26775;BME280;14362;51.902;7.626;2024-01-30T20:26:42;102582.06;;;7.47;80.36
26775;BME280;14362;51.902;7.626;2024-01-30T20:30:43;102595.09;;;7.44;79.96
26775;BME280;14362;51.902;7.626;2024-01-30T20:34:46;102586.34;;;7.43;80.47
26775;BME280;14362;51.902;7.626;2024-01-30T20:38:48;102602.06;;;7.43;80.66
26775;BME280;14362;51.902;7.626;2024-01-30T20:42:51;102599.47;;;7.45;80.06
26775;BME280;14362;51.902;7.626;2024-01-30T20:46:53;102607.22;;;7.39;80.46
26775;BME280;14362;51.902;7.626;2024-01-30T20:50:54;102615.13;;;7.40;80.92
26775;BME280;14362;51.902;7.626;2024-01-30T20:54:55;102611.44;;;7.32;81.21
26775;BME280;14362;51.902;7.626;2024-01-30T20:58:58;102618.28;;;7.25;82.26
26775;BME280;14362;51.902;7.626;2024-01-30T21:03:00;102615.59;;;7.22;82.97
26775;BME280;14362;51.902;7.626;2024-01-30T21:07:01;102618.09;;;7.18;83.73
26775;BME280;14362;51.902;7.626;2024-01-30T21:11:03;102610.16;;;7.13;84.90
26775;BME280;14362;51.902;7.626;2024-01-30T21:15:09;102615.22;;;7.05;84.73
26775;BME280;14362;51.902;7.626;2024-01-30T21:19:10;102616.03;;;7.03;84.91